createdAt,value
2022-10-02T00:02:19.896Z,94.7
2022-10-02T00:07:24.454Z,94.5
2022-10-02T00:12:28.031Z,94.5
2022-10-02T00:17:32.559Z,94.6
2022-10-02T00:22:37.043Z,94.7
2022-10-02T00:27:40.623Z,94.9
2022-10-02T00:32:45.171Z,94.8
2022-10-02T00:37:49.676Z,94.7
2022-10-02T00:42:54.264Z,94.7
2022-10-02T00:47:57.812Z,94.5
2022-10-02T00:53:02.473Z,94.4
2022-10-02T00:58:06.844Z,94.1
2022-10-02T01:03:10.357Z,94.1
2022-10-02T01:08:14.946Z,94.3
2022-10-02T01:13:19.489Z,94.2
2022-10-02T01:18:23.015Z,94.5
2022-10-02T01:23:27.534Z,94.5
2022-10-02T01:28:32.199Z,94.7
2022-10-02T01:33:35.611Z,94.6
2022-10-02T01:38:40.175Z,94.5
2022-10-02T01:43:44.703Z,94.5
2022-10-02T01:48:49.271Z,94.9
2022-10-02T01:53:52.770Z,95.3
2022-10-02T01:58:57.345Z,95.5
2022-10-02T02:04:01.856Z,95.6
2022-10-02T02:09:05.381Z,95.8
2022-10-02T02:14:09.960Z,96
2022-10-02T02:19:14.466Z,96
2022-10-02T02:24:17.992Z,96
2022-10-02T02:29:22.613Z,96.2
2022-10-02T02:34:26.083Z,96.4
2022-10-02T02:39:30.619Z,96.6
2022-10-02T02:44:35.191Z,96.5
2022-10-02T02:49:38.720Z,96.7
2022-10-02T02:54:43.259Z,96.7
2022-10-02T02:59:47.811Z,96.7
2022-10-02T03:04:51.337Z,96.4
2022-10-02T03:09:55.889Z,96.3
2022-10-02T03:15:00.422Z,96
2022-10-02T03:20:03.935Z,96.2
2022-10-02T03:25:08.506Z,95.8
2022-10-02T03:30:13.040Z,95.8
2022-10-02T03:35:17.570Z,95.8
2022-10-02T03:40:21.088Z,96.5
2022-10-02T03:45:46.616Z,97.7
2022-10-02T03:50:34.099Z,99.4
2022-10-02T03:55:33.750Z,100
2022-10-02T04:00:38.386Z,100
2022-10-02T04:05:42.797Z,100
2022-10-02T04:10:46.350Z,100
2022-10-02T04:15:51.001Z,100
2022-10-02T04:20:55.395Z,100
2022-10-02T04:25:58.944Z,100
2022-10-02T04:31:03.549Z,100
2022-10-02T04:36:08.041Z,100
2022-10-02T04:41:12.580Z,100
2022-10-02T04:46:16.177Z,100
2022-10-02T04:51:20.641Z,100
2022-10-02T04:56:25.207Z,100
2022-10-02T05:01:28.772Z,100
2022-10-02T05:06:33.519Z,100
2022-10-02T05:11:37.814Z,100
2022-10-02T05:16:41.584Z,100
2022-10-02T05:21:45.939Z,100
2022-10-02T05:26:50.424Z,100
2022-10-02T05:31:54.107Z,100
2022-10-02T05:36:58.503Z,100
2022-10-02T05:42:03.086Z,100
2022-10-02T05:47:07.690Z,100
2022-10-02T05:52:11.125Z,100
2022-10-02T05:57:15.677Z,100
2022-10-02T06:02:20.314Z,100
2022-10-02T06:07:23.765Z,100
2022-10-02T06:12:28.263Z,100
2022-10-02T06:17:32.880Z,100
2022-10-02T06:22:36.382Z,100
2022-10-02T06:27:40.896Z,100
2022-10-02T06:32:45.729Z,100
2022-10-02T06:37:48.976Z,100
2022-10-02T06:42:53.500Z,100
2022-10-02T06:47:57.100Z,100
2022-10-02T06:53:01.613Z,100
2022-10-02T06:58:06.166Z,100
2022-10-02T07:03:09.726Z,100
2022-10-02T07:08:14.241Z,100
2022-10-02T07:13:18.759Z,100
2022-10-02T07:18:22.323Z,100
2022-10-02T07:23:26.881Z,100
2022-10-02T07:28:31.452Z,100
2022-10-02T07:33:35.943Z,100
2022-10-02T07:38:39.466Z,100
2022-10-02T07:43:43.985Z,100
2022-10-02T07:48:48.568Z,100
2022-10-02T07:53:52.054Z,100
2022-10-02T07:58:56.612Z,100
2022-10-02T08:04:01.146Z,100
2022-10-02T08:09:04.700Z,100
2022-10-02T08:14:09.260Z,100
2022-10-02T08:19:13.805Z,100
2022-10-02T08:24:17.309Z,100
2022-10-02T08:29:21.836Z,100
2022-10-02T08:34:26.429Z,100
2022-10-02T08:39:30.882Z,100
2022-10-02T08:44:36.525Z,100
2022-10-02T08:49:39.020Z,100
2022-10-02T08:54:43.518Z,100
2022-10-02T08:59:47.048Z,100
2022-10-02T09:04:51.674Z,100
2022-10-02T09:09:56.121Z,100
2022-10-02T09:14:59.706Z,100
2022-10-02T09:20:04.238Z,100
2022-10-02T09:25:08.763Z,100
2022-10-02T09:30:12.292Z,99.3
2022-10-02T09:35:16.833Z,98.3
2022-10-02T09:40:21.347Z,98.1
2022-10-02T09:45:25.978Z,98.3
2022-10-02T09:50:29.453Z,98.7
2022-10-02T09:55:33.975Z,97.9
2022-10-02T10:00:38.550Z,96.8
2022-10-02T10:05:42.132Z,97
2022-10-02T10:10:46.600Z,97
2022-10-02T10:15:51.118Z,97.3
2022-10-02T10:20:54.705Z,97
2022-10-02T10:25:59.221Z,96.9
2022-10-02T10:31:03.771Z,96.5
2022-10-02T10:36:07.308Z,96.5
2022-10-02T10:41:11.833Z,96.1
2022-10-02T10:46:16.449Z,95.9
2022-10-02T10:51:20.909Z,95.4
2022-10-02T10:56:24.454Z,96.2
2022-10-02T11:01:28.039Z,95
2022-10-02T11:06:32.576Z,94.5
2022-10-02T11:11:37.353Z,94.4
2022-10-02T11:16:40.667Z,94.9
2022-10-02T11:21:45.198Z,93.6
2022-10-02T11:26:49.697Z,92.9
2022-10-02T11:31:54.259Z,90.7
2022-10-02T11:36:57.787Z,90.2
2022-10-02T11:42:02.303Z,89.6
2022-10-02T11:47:06.835Z,91
2022-10-02T11:52:10.400Z,90.7
2022-10-02T11:57:14.926Z,91.6
2022-10-02T12:02:19.552Z,91.2
2022-10-02T12:07:23.045Z,90.8
2022-10-02T12:12:28.082Z,91.5
2022-10-02T12:17:32.067Z,91.5
2022-10-02T12:22:35.651Z,91.5
2022-10-02T12:27:40.164Z,87.7
2022-10-02T12:32:44.702Z,88.2
2022-10-02T12:37:49.224Z,85.4
2022-10-02T12:42:52.752Z,86.9
2022-10-02T12:47:57.303Z,86.5
2022-10-02T12:53:01.870Z,86.8
2022-10-02T12:58:05.380Z,83.6
2022-10-02T13:03:09.969Z,83.8
2022-10-02T13:08:14.465Z,83.4
2022-10-02T13:13:18.001Z,83.9
2022-10-02T13:18:22.537Z,83.9
2022-10-02T13:23:27.066Z,84.1
2022-10-02T13:28:30.678Z,83.9
2022-10-02T13:33:35.146Z,84.7
2022-10-02T13:38:39.724Z,84.4
2022-10-02T13:43:44.206Z,85
2022-10-02T13:48:47.765Z,83.8
2022-10-02T13:53:52.324Z,85.3
2022-10-02T13:58:56.847Z,87.4
2022-10-02T14:04:00.442Z,88
2022-10-02T14:09:04.918Z,88
2022-10-02T14:14:09.447Z,89.4
2022-10-02T14:19:13.001Z,88.7
2022-10-02T14:24:17.561Z,89.5
2022-10-02T14:29:22.067Z,88.9
2022-10-02T14:34:25.635Z,89.7
2022-10-02T14:39:30.156Z,88.6
2022-10-02T14:44:34.692Z,88.7
2022-10-02T14:49:39.202Z,89.2
2022-10-02T14:54:42.781Z,89.3
2022-10-02T14:59:47.312Z,89.8
2022-10-02T15:04:51.823Z,88.1
2022-10-02T15:09:55.383Z,87.3
2022-10-02T15:14:58.921Z,88.1
2022-10-02T15:20:03.474Z,88.4
2022-10-02T15:25:08.042Z,88.1
2022-10-02T15:30:12.507Z,89.1
2022-10-02T15:35:16.102Z,89.1
2022-10-02T15:40:20.662Z,88.4
2022-10-02T15:45:25.146Z,89.4
2022-10-02T15:50:28.689Z,88.5
2022-10-02T15:55:33.290Z,88.7
2022-10-02T16:00:37.804Z,89.8
2022-10-02T16:05:41.305Z,90.8
2022-10-02T16:10:45.849Z,91.5
2022-10-02T16:15:50.374Z,92.4
2022-10-02T16:20:53.925Z,92.6
2022-10-02T16:25:58.505Z,92.7
2022-10-02T16:31:03.082Z,92.8
2022-10-02T16:36:07.518Z,92.6
2022-10-02T16:41:11.280Z,92.6
2022-10-02T16:46:15.666Z,93
2022-10-02T16:51:20.144Z,93.5
2022-10-02T16:56:23.693Z,93.9
2022-10-02T17:01:28.281Z,94.1
2022-10-02T17:06:32.755Z,94.8
2022-10-02T17:11:36.308Z,95.3
2022-10-02T17:16:41.270Z,95.7
2022-10-02T17:21:45.365Z,96.1
2022-10-02T17:26:48.962Z,96.3
2022-10-02T17:31:53.598Z,96.7
2022-10-02T17:36:57.990Z,96.9
2022-10-02T17:42:02.591Z,97
2022-10-02T17:47:06.106Z,97.1
2022-10-02T17:52:10.620Z,96.7
2022-10-02T17:57:15.180Z,96.7
2022-10-02T18:02:18.762Z,96.6
2022-10-02T18:07:23.247Z,96.9
2022-10-02T18:12:27.775Z,97.3
2022-10-02T18:17:31.301Z,97.4
2022-10-02T18:22:35.871Z,97.5
2022-10-02T18:27:40.395Z,97.7
2022-10-02T18:32:43.977Z,98.1
2022-10-02T18:37:48.515Z,98.2
2022-10-02T18:42:53.093Z,97.8
2022-10-02T18:47:57.543Z,98.2
2022-10-02T18:53:01.090Z,98.9
2022-10-02T18:58:05.652Z,99.2
2022-10-02T19:03:10.195Z,99.5
2022-10-02T19:08:13.714Z,99.5
2022-10-02T19:13:18.585Z,99.7
2022-10-02T19:18:22.795Z,100
2022-10-02T19:23:26.368Z,100
2022-10-02T19:28:30.936Z,100
2022-10-02T19:33:34.464Z,100
2022-10-02T19:38:38.942Z,100
2022-10-02T19:43:43.530Z,100
2022-10-02T19:48:47.028Z,100
2022-10-02T19:53:51.589Z,100
2022-10-02T19:58:56.141Z,100
2022-10-02T20:03:59.687Z,100
2022-10-02T20:09:04.214Z,100
2022-10-02T20:14:08.757Z,100
2022-10-02T20:19:12.289Z,100
2022-10-02T20:24:16.810Z,100
2022-10-02T20:29:21.393Z,100
2022-10-02T20:34:26.207Z,100
2022-10-02T20:39:29.441Z,100
2022-10-02T20:44:33.981Z,100
2022-10-02T20:49:38.538Z,100
2022-10-02T20:54:42.077Z,100
2022-10-02T20:59:46.636Z,100
2022-10-02T21:04:51.121Z,100
2022-10-02T21:09:54.701Z,100
2022-10-02T21:14:59.223Z,100
2022-10-02T21:20:03.743Z,100
2022-10-02T21:25:07.298Z,100
2022-10-02T21:30:11.826Z,100
2022-10-02T21:35:16.344Z,100
2022-10-02T21:40:20.878Z,100
2022-10-02T21:45:24.460Z,99.9
2022-10-02T21:50:28.985Z,99.9
2022-10-02T21:55:33.526Z,99.7
2022-10-02T22:00:37.091Z,100
2022-10-02T22:05:41.634Z,99.8
2022-10-02T22:10:46.129Z,99.9
2022-10-02T22:15:49.778Z,100
2022-10-02T22:20:54.190Z,100
2022-10-02T22:25:58.732Z,100
2022-10-02T22:31:02.403Z,100
2022-10-02T22:36:06.831Z,100
2022-10-02T22:41:11.341Z,100
2022-10-02T22:46:15.963Z,100
2022-10-02T22:51:19.455Z,100
2022-10-02T22:56:23.960Z,100
2022-10-02T23:01:28.580Z,100
2022-10-02T23:06:32.084Z,100
2022-10-02T23:11:36.912Z,100
2022-10-02T23:16:41.138Z,100
2022-10-02T23:21:46.194Z,100
2022-10-02T23:26:49.207Z,100
2022-10-02T23:31:53.835Z,100
2022-10-02T23:36:57.272Z,100
2022-10-02T23:42:01.806Z,100
2022-10-02T23:47:05.411Z,100
2022-10-02T23:52:09.895Z,100
2022-10-02T23:57:14.465Z,100
